Time;durP1;ratioP1;P1;durP2;ratioP2;P2;SDS_P1;SDS_P2;PMS_P1;PMS_P2;Temp;Humidity;BMP_temperature;BMP_pressure;BME280_temperature;BME280_humidity;BME280_pressure;Samples;Min_cycle;Max_cycle;Signal;HPM_P1;HPM_P2
2021/11/14 00:05:17;;;;;;;0.20;0.00;;;15.40;99.90;;;;;;20506252;29;20251;-74
2021/11/14 00:15:22;;;;;;;0.20;0.10;;;15.40;99.90;;;;;;20507293;29;20197;-73
2021/11/14 00:25:26;;;;;;;0.20;0.00;;;15.20;99.90;;;;;;20503788;28;20690;-76
2021/11/14 00:35:31;;;;;;;0.20;0.10;;;14.90;99.90;;;;;;20505594;29;20215;-76
2021/11/14 00:45:37;;;;;;;0.20;0.10;;;14.80;99.90;;;;;;20502974;28;20228;-74
2021/11/14 00:55:42;;;;;;;0.20;0.00;;;14.60;99.90;;;;;;20499252;28;20211;-74
2021/11/14 01:05:46;;;;;;;0.20;0.10;;;14.70;99.90;;;;;;20503540;28;20323;-74
2021/11/14 01:15:52;;;;;;;0.20;0.10;;;14.90;99.90;;;;;;20502966;29;20244;-75
2021/11/14 01:25:57;;;;;;;0.20;0.00;;;14.90;99.90;;;;;;20486415;29;20229;-76
2021/11/14 01:36:02;;;;;;;0.20;0.10;;;14.90;99.90;;;;;;20448106;29;20204;-75
2021/11/14 01:46:06;;;;;;;0.20;0.00;;;15.00;99.90;;;;;;20422014;29;20320;-74
2021/11/14 01:56:13;;;;;;;0.20;0.00;;;15.10;99.90;;;;;;20421840;29;20331;-74
2021/11/14 02:06:17;;;;;;;0.20;0.10;;;15.20;99.90;;;;;;20432783;23;20243;-74
2021/11/14 02:16:27;;;;;;;0.20;0.10;;;15.20;99.90;;;;;;20403863;29;20201;-73
2021/11/14 02:26:32;;;;;;;0.20;0.10;;;15.30;99.90;;;;;;20420218;29;20236;-74
2021/11/14 02:36:36;;;;;;;0.20;0.10;;;15.30;99.90;;;;;;20419400;29;20201;-75
2021/11/14 02:46:41;;;;;;;0.43;0.43;;;15.00;99.90;;;;;;20417729;29;20265;-74
2021/11/14 02:56:45;;;;;;;0.60;0.60;;;14.60;99.90;;;;;;20422318;29;20231;-74
2021/11/14 03:06:52;;;;;;;0.20;0.10;;;14.50;99.90;;;;;;20488111;23;20270;-77
2021/11/14 03:16:56;;;;;;;0.20;0.10;;;14.40;99.90;;;;;;20495720;28;20219;-75
2021/11/14 03:27:01;;;;;;;0.20;0.10;;;14.30;99.90;;;;;;20496472;29;20591;-74
2021/11/14 03:37:12;;;;;;;0.20;0.00;;;14.20;99.90;;;;;;20495638;29;20279;-75
2021/11/14 03:47:17;;;;;;;0.20;0.00;;;14.30;99.90;;;;;;20494210;29;20235;-74
2021/11/14 03:57:20;;;;;;;0.20;0.00;;;14.10;99.90;;;;;;20494205;29;20211;-74
2021/11/14 04:07:26;;;;;;;0.20;0.10;;;13.90;99.90;;;;;;20494440;29;20228;-75
2021/11/14 04:17:30;;;;;;;0.20;0.00;;;13.80;99.90;;;;;;20481347;29;20215;-74
2021/11/14 04:27:35;;;;;;;0.20;0.10;;;13.50;99.90;;;;;;20503312;28;20229;-75
2021/11/14 04:37:39;;;;;;;0.20;0.10;;;13.30;99.90;;;;;;20505286;29;20297;-73
2021/11/14 04:47:44;;;;;;;0.20;0.10;;;13.10;99.90;;;;;;20504020;28;20858;-73
2021/11/14 04:57:51;;;;;;;0.20;0.10;;;13.00;99.90;;;;;;20488686;29;20205;-74
2021/11/14 05:07:56;;;;;;;0.20;0.10;;;13.00;99.90;;;;;;20506657;29;20224;-75
2021/11/14 05:18:00;;;;;;;0.20;0.00;;;12.80;99.90;;;;;;20503581;29;20213;-75
2021/11/14 05:28:09;;;;;;;0.20;0.10;;;12.80;99.90;;;;;;20486085;29;20228;-75
2021/11/14 05:38:14;;;;;;;0.20;0.10;;;12.60;99.90;;;;;;20502740;28;20204;-75
2021/11/14 05:48:19;;;;;;;0.20;0.10;;;12.40;99.90;;;;;;20501638;29;20292;-75
2021/11/14 05:58:29;;;;;;;0.20;0.10;;;11.80;99.90;;;;;;20500359;29;20205;-75
2021/11/14 06:08:34;;;;;;;0.20;0.10;;;11.80;99.90;;;;;;20427087;28;20243;-75
2021/11/14 06:18:37;;;;;;;0.20;0.10;;;12.00;99.90;;;;;;20420363;29;20209;-75
2021/11/14 06:28:42;;;;;;;0.20;0.10;;;12.20;99.90;;;;;;20419242;29;20617;-72
2021/11/14 06:38:46;;;;;;;0.20;0.10;;;12.20;99.90;;;;;;20417290;29;20232;-76
2021/11/14 06:48:51;;;;;;;0.47;0.47;;;12.20;99.90;;;;;;20417936;29;20229;-74
2021/11/14 06:58:55;;;;;;;1.87;0.57;;;12.20;99.90;;;;;;20417680;29;20255;-77
2021/11/14 07:09:00;;;;;;;0.20;0.20;;;12.20;99.90;;;;;;20413889;29;20230;-77
2021/11/14 07:19:04;;;;;;;0.20;0.10;;;12.20;99.90;;;;;;20340310;29;20198;-75
2021/11/14 07:29:09;;;;;;;0.20;0.10;;;12.50;99.90;;;;;;20338134;29;20718;-75
2021/11/14 07:39:12;;;;;;;0.20;0.10;;;12.70;99.90;;;;;;20337145;29;20245;-79
2021/11/14 07:49:17;;;;;;;0.20;0.10;;;12.80;99.90;;;;;;20336564;29;20222;-76
2021/11/14 07:59:21;;;;;;;0.20;0.10;;;13.00;99.90;;;;;;20345430;29;20202;-78
2021/11/14 08:09:27;;;;;;;0.20;0.10;;;13.30;99.90;;;;;;20360361;29;20236;-76
2021/11/14 08:19:30;;;;;;;0.20;0.10;;;13.50;99.90;;;;;;20434665;29;20668;-74
2021/11/14 08:29:35;;;;;;;0.20;0.10;;;13.70;99.90;;;;;;20429669;29;20229;-74
2021/11/14 08:39:40;;;;;;;0.20;0.10;;;14.00;99.90;;;;;;20427973;29;20202;-75
2021/11/14 08:49:45;;;;;;;0.20;0.10;;;14.20;99.90;;;;;;20424797;29;20319;-78
2021/11/14 08:59:50;;;;;;;0.27;0.27;;;14.20;99.90;;;;;;20425003;29;20229;-74
2021/11/14 09:09:57;;;;;;;0.20;0.00;;;14.90;99.90;;;;;;20412082;29;20743;-72
2021/11/14 09:20:00;;;;;;;0.20;0.00;;;14.90;99.90;;;;;;20329240;29;20349;-75
2021/11/14 09:30:07;;;;;;;0.20;0.10;;;15.10;99.90;;;;;;20348033;29;20222;-72
2021/11/14 09:40:11;;;;;;;0.20;0.00;;;15.20;99.90;;;;;;20343654;29;20209;-74
2021/11/14 09:50:16;;;;;;;0.20;0.10;;;15.30;99.90;;;;;;20325596;29;20238;-74
2021/11/14 10:00:25;;;;;;;0.20;0.10;;;16.30;99.90;;;;;;20369156;29;20225;-74
2021/11/14 10:10:32;;;;;;;0.20;0.07;;;16.90;99.90;;;;;;20422191;29;20216;-75
2021/11/14 10:20:47;;;;;;;0.20;0.10;;;17.30;99.90;;;;;;20420840;29;20337;-77
2021/11/14 10:30:52;;;;;;;0.20;0.10;;;17.30;99.90;;;;;;20417558;29;20328;-76
2021/11/14 10:41:00;;;;;;;0.67;0.67;;;17.20;99.90;;;;;;20413003;29;20204;-77
2021/11/14 10:51:07;;;;;;;0.20;0.10;;;17.80;99.90;;;;;;20492560;29;20220;-76
2021/11/14 11:01:12;;;;;;;0.20;0.00;;;18.60;99.90;;;;;;20492916;29;20777;-76
2021/11/14 11:11:23;;;;;;;0.20;0.03;;;18.30;99.90;;;;;;20454247;29;20425;-71
2021/11/14 11:21:31;;;;;;;0.20;0.03;;;18.60;99.90;;;;;;20414314;29;20294;-76
2021/11/14 11:31:36;;;;;;;0.20;0.10;;;21.00;99.90;;;;;;20442680;29;20327;-75
2021/11/14 11:41:42;;;;;;;0.20;0.10;;;19.20;99.90;;;;;;20450627;29;20246;-75
2021/11/14 11:51:51;;;;;;;0.20;0.10;;;18.90;99.90;;;;;;20450870;29;20213;-75
2021/11/14 12:01:58;;;;;;;0.20;0.03;;;18.70;99.90;;;;;;20451934;28;20249;-74
2021/11/14 12:12:04;;;;;;;0.20;0.10;;;18.20;99.90;;;;;;20442668;29;20698;-75
2021/11/14 12:22:12;;;;;;;0.20;0.10;;;17.90;99.90;;;;;;20491295;29;20232;-76
2021/11/14 12:32:21;;;;;;;0.20;0.10;;;17.60;99.90;;;;;;20486364;29;20208;-75
2021/11/14 12:42:28;;;;;;;0.20;0.10;;;18.40;99.90;;;;;;20455629;28;20231;-75
2021/11/14 12:52:36;;;;;;;0.20;0.10;;;19.00;99.90;;;;;;20501932;29;20620;-73
2021/11/14 13:02:50;;;;;;;0.20;0.10;;;19.80;99.90;;;;;;20500749;29;20255;-73
2021/11/14 13:12:55;;;;;;;0.20;0.10;;;18.70;99.90;;;;;;20483517;29;20208;-74
2021/11/14 13:22:59;;;;;;;0.20;0.10;;;18.20;99.90;;;;;;20478127;29;20231;-75
2021/11/14 13:33:05;;;;;;;0.20;0.10;;;18.00;99.90;;;;;;20500960;29;20295;-76
2021/11/14 13:43:10;;;;;;;0.20;0.10;;;17.50;99.90;;;;;;20500329;29;20311;-75
2021/11/14 13:53:18;;;;;;;0.20;0.10;;;17.10;99.90;;;;;;20499343;28;20201;-75
2021/11/14 14:03:23;;;;;;;0.20;0.00;;;17.10;99.90;;;;;;20475354;28;20320;-74
2021/11/14 14:13:29;;;;;;;0.20;0.10;;;17.10;99.90;;;;;;20417601;29;20292;-73
2021/11/14 14:23:36;;;;;;;0.20;0.00;;;16.90;99.90;;;;;;20401707;29;20316;-73
2021/11/14 14:33:49;;;;;;;0.20;0.10;;;17.10;99.90;;;;;;20414572;29;20210;-73
2021/11/14 14:43:56;;;;;;;0.20;0.10;;;17.00;99.90;;;;;;20413986;29;20698;-73
2021/11/14 14:54:11;;;;;;;0.20;0.10;;;16.80;99.90;;;;;;20410509;29;20198;-73
2021/11/14 15:04:16;;;;;;;0.20;0.10;;;16.90;99.90;;;;;;20339536;29;20328;-71
2021/11/14 15:14:32;;;;;;;0.20;0.10;;;17.20;99.90;;;;;;20380053;29;20719;-73
2021/11/14 15:24:36;;;;;;;0.20;0.00;;;16.90;99.90;;;;;;20385581;29;20315;-72
2021/11/14 15:34:41;;;;;;;0.20;0.10;;;16.80;99.90;;;;;;20383156;29;20194;-72
2021/11/14 15:44:45;;;;;;;0.20;0.00;;;16.80;99.90;;;;;;20373719;29;20461;-73
2021/11/14 15:54:51;;;;;;;0.20;0.10;;;16.70;99.90;;;;;;20348963;29;20284;-72
2021/11/14 16:04:55;;;;;;;0.20;0.10;;;16.50;99.90;;;;;;20331254;29;20248;-72
2021/11/14 16:15:04;;;;;;;0.20;0.10;;;16.20;99.90;;;;;;20411023;29;20735;-73
2021/11/14 16:25:09;;;;;;;0.20;0.07;;;16.10;99.90;;;;;;20420096;29;20229;-72
2021/11/14 16:35:15;;;;;;;0.20;0.00;;;15.90;99.90;;;;;;20401066;29;20198;-71
2021/11/14 16:45:19;;;;;;;0.20;0.10;;;15.80;99.90;;;;;;20406724;29;20229;-73
2021/11/14 16:55:24;;;;;;;0.20;0.00;;;15.90;99.90;;;;;;20422627;29;20190;-71
2021/11/14 17:05:28;;;;;;;0.20;0.10;;;15.90;99.90;;;;;;20421236;29;20762;-71
2021/11/14 17:15:33;;;;;;;0.20;0.10;;;16.00;99.90;;;;;;20365463;29;20203;-72
2021/11/14 17:25:37;;;;;;;0.20;0.10;;;16.00;99.90;;;;;;20342208;29;20234;-73
2021/11/14 17:35:43;;;;;;;0.20;0.10;;;15.80;99.90;;;;;;20324885;29;20210;-74
2021/11/14 17:45:47;;;;;;;0.20;0.10;;;15.70;99.90;;;;;;20371664;29;20236;-73
2021/11/14 17:55:52;;;;;;;0.20;0.00;;;15.60;99.90;;;;;;20382510;29;20252;-73
2021/11/14 18:05:56;;;;;;;0.20;0.10;;;15.70;99.90;;;;;;20428323;28;20256;-69
2021/11/14 18:16:01;;;;;;;0.20;0.10;;;15.70;99.90;;;;;;20448056;29;20232;-75
2021/11/14 18:26:05;;;;;;;0.20;0.10;;;15.70;99.90;;;;;;20495161;29;20220;-73
2021/11/14 18:36:10;;;;;;;0.20;0.00;;;15.40;99.90;;;;;;20468758;29;20225;-74
2021/11/14 18:46:14;;;;;;;0.20;0.00;;;15.00;99.90;;;;;;20419056;29;20537;-75
2021/11/14 18:56:19;;;;;;;0.20;0.10;;;15.10;99.90;;;;;;20494229;29;20256;-74
2021/11/14 19:06:23;;;;;;;0.20;0.10;;;15.20;99.90;;;;;;20491971;29;20232;-73
2021/11/14 19:16:28;;;;;;;0.20;0.10;;;15.30;99.90;;;;;;20480997;29;20221;-78
2021/11/14 19:26:33;;;;;;;0.20;0.10;;;15.30;99.90;;;;;;20412007;29;20699;-74
2021/11/14 19:36:40;;;;;;;0.20;0.07;;;15.00;99.90;;;;;;20412292;29;20205;-74
2021/11/14 19:46:43;;;;;;;0.20;0.00;;;14.70;99.90;;;;;;20410769;29;20691;-74
2021/11/14 19:56:48;;;;;;;0.20;0.10;;;14.80;99.90;;;;;;20422604;29;20685;-76
2021/11/14 20:06:52;;;;;;;0.20;0.00;;;14.80;99.90;;;;;;20410897;29;20225;-73
2021/11/14 20:16:57;;;;;;;0.20;0.03;;;14.60;99.90;;;;;;20342072;29;20638;-75
2021/11/14 20:27:01;;;;;;;0.20;0.00;;;14.50;99.90;;;;;;20370314;29;20260;-75
2021/11/14 20:37:15;;;;;;;0.20;0.10;;;14.40;99.90;;;;;;20378661;29;20193;-75
2021/11/14 20:47:19;;;;;;;2.33;2.23;;;14.60;99.90;;;;;;20386133;29;20755;-74
2021/11/14 20:57:24;;;;;;;0.20;0.03;;;14.60;99.90;;;;;;20385083;29;20205;-73
2021/11/14 21:07:28;;;;;;;0.20;0.07;;;14.20;99.90;;;;;;20383338;29;20253;-76
2021/11/14 21:17:34;;;;;;;0.20;0.10;;;13.80;99.90;;;;;;20387934;29;20201;-77
2021/11/14 21:27:38;;;;;;;0.20;0.00;;;13.40;99.90;;;;;;20376814;29;20456;-76
2021/11/14 21:48:05;;;;;;;0.20;0.10;;;12.90;99.90;;;;;;20345347;29;20230;-77
2021/11/14 21:58:11;;;;;;;0.20;0.00;;;12.80;99.90;;;;;;20353200;29;20240;-76
2021/11/14 22:08:14;;;;;;;0.20;0.10;;;12.90;99.90;;;;;;20447055;29;20770;-76
2021/11/14 22:18:19;;;;;;;0.20;0.10;;;13.10;99.90;;;;;;20446841;29;20276;-76
2021/11/14 22:28:23;;;;;;;0.20;0.00;;;12.90;99.90;;;;;;20460450;29;20695;-74
2021/11/14 22:38:28;;;;;;;0.20;0.10;;;13.10;99.90;;;;;;20474705;28;20197;-76
2021/11/14 22:48:32;;;;;;;0.20;0.10;;;12.90;99.90;;;;;;20457207;29;20317;-75
2021/11/14 22:58:38;;;;;;;0.20;0.10;;;12.50;99.90;;;;;;20455855;29;20194;-74
2021/11/14 23:08:42;;;;;;;0.20;0.10;;;12.60;99.90;;;;;;20435716;29;20280;-75
2021/11/14 23:18:47;;;;;;;0.20;0.00;;;12.40;99.90;;;;;;20454908;29;20190;-76
2021/11/14 23:28:51;;;;;;;0.20;0.10;;;12.50;99.90;;;;;;20453360;29;20271;-75
2021/11/14 23:38:57;;;;;;;0.20;0.10;;;12.60;99.90;;;;;;20455568;29;20197;-75
2021/11/14 23:49:00;;;;;;;0.20;0.10;;;12.30;99.90;;;;;;20452865;29;20225;-76
2021/11/14 23:59:05;;;;;;;0.20;0.00;;;12.10;99.90;;;;;;20452654;29;20182;-77
